createdAt,value
2016-05-23T00:00:00.478Z,49.63
2016-05-23T00:01:00.684Z,49.72
2016-05-23T00:02:00.500Z,49.63
2016-05-23T00:03:00.503Z,49.43
2016-05-23T00:04:00.723Z,49.53
2016-05-23T00:05:00.398Z,49.72
2016-05-23T00:06:00.745Z,49.82
2016-05-23T00:07:00.544Z,49.15
2016-05-23T00:08:00.109Z,49.43
2016-05-23T00:09:00.816Z,49.91
2016-05-23T00:10:14.664Z,50.2
2016-05-23T00:11:14.917Z,51.07
2016-05-23T00:12:00.449Z,50.97
2016-05-23T00:13:00.623Z,51.26
2016-05-23T00:14:00.641Z,50.49
2016-05-23T00:15:00.487Z,50.4
2016-05-23T00:16:00.646Z,50.3
2016-05-23T00:17:00.869Z,50.1
2016-05-23T00:18:00.730Z,51.55
2016-05-23T00:19:00.685Z,51.17
2016-05-23T00:20:00.736Z,51.74
2016-05-23T00:21:00.957Z,51.26
2016-05-23T00:22:00.929Z,50.68
2016-05-23T00:23:00.931Z,50.78
2016-05-23T00:24:00.685Z,51.17
2016-05-23T00:25:00.780Z,50.87
2016-05-23T00:26:00.767Z,51.07
2016-05-23T00:27:00.786Z,51.45
2016-05-23T00:28:00.834Z,51.84
2016-05-23T00:29:00.635Z,51.74
2016-05-23T00:31:00.812Z,51.45
2016-05-23T00:32:01.034Z,51.45
2016-05-23T00:33:00.833Z,51.23
2016-05-23T00:34:00.867Z,51.45
2016-05-23T00:35:00.604Z,51.45
2016-05-23T00:36:00.903Z,51.53
2016-05-23T00:37:00.766Z,51.62
2016-05-23T00:38:00.909Z,51.43
2016-05-23T00:39:00.928Z,51.93
2016-05-23T00:40:00.992Z,51.64
2016-05-23T00:41:00.792Z,51.81
2016-05-23T00:42:00.950Z,51.81
2016-05-23T00:43:00.953Z,51.62
2016-05-23T00:44:01.347Z,52.1
2016-05-23T00:45:00.506Z,52
2016-05-23T00:46:01.227Z,52.29
2016-05-23T00:47:00.996Z,51.72
2016-05-23T00:48:01.061Z,52.29
2016-05-23T00:49:01.016Z,52.58
2016-05-23T00:50:01.035Z,52
2016-05-23T00:51:01.038Z,51.81
2016-05-23T00:52:01.041Z,52.29
2016-05-23T00:54:01.279Z,52.48
2016-05-23T00:55:01.315Z,52.48
2016-05-23T00:56:01.129Z,52.39
2016-05-23T00:57:15.369Z,52.1
2016-05-23T00:58:00.963Z,52
2016-05-23T00:59:01.325Z,51.62
2016-05-23T01:00:01.156Z,51.81
2016-05-23T01:01:01.158Z,51.62
2016-05-23T01:02:01.365Z,51.53
2016-05-23T01:03:01.164Z,51.53
2016-05-23T01:04:01.588Z,51.72
2016-05-23T01:05:01.388Z,51.43
2016-05-23T01:06:01.594Z,51.62
2016-05-23T01:07:01.409Z,51.53
2016-05-23T01:08:01.208Z,51.43
2016-05-23T01:09:01.430Z,51.43
2016-05-23T01:10:01.245Z,51.43
2016-05-23T01:11:01.278Z,51.55
2016-05-23T01:12:01.125Z,50.95
2016-05-23T01:13:01.300Z,51.04
2016-05-23T01:14:01.131Z,51.74
2016-05-23T01:15:01.508Z,51.04
2016-05-23T01:16:01.152Z,51.04
2016-05-23T01:17:01.514Z,51.55
2016-05-23T01:18:01.516Z,51.55
2016-05-23T01:19:01.379Z,51.45
2016-05-23T01:20:01.335Z,51.55
2016-05-23T01:21:01.353Z,51.55
2016-05-23T01:22:01.605Z,51.55
2016-05-23T01:23:15.454Z,51.55
2016-05-23T01:24:01.626Z,51.53
2016-05-23T01:25:00.941Z,51.53
2016-05-23T01:26:01.429Z,51.72
2016-05-23T01:27:01.415Z,51.81
2016-05-23T01:28:01.435Z,51.72
2016-05-23T01:29:01.484Z,51.62
2016-05-23T01:30:01.470Z,52.1
2016-05-23T01:31:01.457Z,51.72
2016-05-23T01:32:01.476Z,51.91
2016-05-23T01:33:01.698Z,51.72
2016-05-23T01:34:01.497Z,51.53
2016-05-23T01:35:01.515Z,52.2
2016-05-23T01:36:01.518Z,52.29
2016-05-23T01:37:01.520Z,52.48
2016-05-23T01:38:01.539Z,52.68
2016-05-23T01:39:01.572Z,52.39
2016-05-23T01:40:15.641Z,52.39
2016-05-23T01:41:01.797Z,52.68
2016-05-23T01:42:01.597Z,52.29
2016-05-23T01:43:01.803Z,52.87
2016-05-23T01:44:02.164Z,52.55
2016-05-23T01:45:01.167Z,52.36
2016-05-23T01:46:15.719Z,52.46
2016-05-23T01:47:01.657Z,52.58
2016-05-23T01:48:01.660Z,52.48
2016-05-23T01:49:01.663Z,52.65
2016-05-23T01:50:01.665Z,52.58
2016-05-23T01:51:01.668Z,52.46
2016-05-23T01:52:01.686Z,52.46
2016-05-23T01:53:01.704Z,52.94
2016-05-23T01:54:01.707Z,52.94
2016-05-23T01:55:01.710Z,52.84
2016-05-23T01:56:01.275Z,53.03
2016-05-23T01:57:01.981Z,53.61
2016-05-23T01:58:01.765Z,53.32
2016-05-23T01:59:01.783Z,53.23
2016-05-23T02:00:01.785Z,53.32
2016-05-23T02:01:01.788Z,53.7
2016-05-23T02:02:01.790Z,53.42
2016-05-23T02:03:01.810Z,53.68
2016-05-23T02:04:01.828Z,54.38
2016-05-23T02:05:01.877Z,54
2016-05-23T02:07:02.086Z,54.06
2016-05-23T02:08:02.103Z,53.87
2016-05-23T02:09:02.123Z,53.87
2016-05-23T02:10:01.907Z,54.35
2016-05-23T02:11:01.925Z,54.55
2016-05-23T02:12:01.928Z,54.83
2016-05-23T02:13:01.930Z,55.12
2016-05-23T02:14:01.947Z,54.74
2016-05-23T02:15:02.155Z,54.74
2016-05-23T02:16:01.953Z,55.22
2016-05-23T02:17:02.175Z,55.32
2016-05-23T02:18:01.974Z,55.51
2016-05-23T02:19:02.180Z,55.32
2016-05-23T02:20:02.386Z,55.12
2016-05-23T02:21:02.202Z,55.32
2016-05-23T02:22:02.205Z,55.22
2016-05-23T02:23:02.004Z,55.12
2016-05-23T02:24:02.022Z,55.69
2016-05-23T02:25:02.119Z,55.51
2016-05-23T02:26:02.043Z,56.08
2016-05-23T02:27:02.046Z,56.08
2016-05-23T02:28:02.065Z,55.89
2016-05-23T02:29:02.738Z,55.6
2016-05-23T02:30:02.132Z,55.79
2016-05-23T02:31:02.166Z,56.08
2016-05-23T02:32:02.293Z,56.15
2016-05-23T02:33:01.657Z,56.15
2016-05-23T02:34:16.209Z,56.34
2016-05-23T02:36:02.164Z,56.15
2016-05-23T02:37:02.166Z,56.24
2016-05-23T02:38:02.123Z,55.96
2016-05-23T02:39:16.690Z,55.47
2016-05-23T02:40:02.628Z,55.77
2016-05-23T02:41:02.208Z,56.44
2016-05-23T02:42:02.446Z,56.53
2016-05-23T02:43:02.230Z,56.44
2016-05-23T02:44:02.233Z,56.34
2016-05-23T02:45:02.906Z,56.15
2016-05-23T02:46:02.284Z,56.44
2016-05-23T02:47:02.303Z,56.53
2016-05-23T02:48:02.477Z,56.53
2016-05-23T02:49:02.277Z,56.53
2016-05-23T02:50:02.483Z,56.73
2016-05-23T02:51:02.298Z,57.11
2016-05-23T02:52:02.504Z,56.92
2016-05-23T02:53:02.725Z,56.92
2016-05-23T02:54:02.337Z,56.82
2016-05-23T02:55:16.405Z,57.11
2016-05-23T02:56:02.358Z,57.01
2016-05-23T02:57:02.564Z,57.08
2016-05-23T02:58:02.599Z,57.11
2016-05-23T02:59:02.398Z,57.5
2016-05-23T03:00:02.400Z,57.75
2016-05-23T03:01:02.403Z,57.46
2016-05-23T03:02:02.452Z,57.46
2016-05-23T03:03:02.409Z,58.23
2016-05-23T03:04:02.411Z,57.85
2016-05-23T03:05:02.273Z,58.04
2016-05-23T03:06:02.447Z,57.95
2016-05-23T03:07:02.450Z,57.85
2016-05-23T03:08:02.453Z,57.75
2016-05-23T03:09:02.487Z,57.75
2016-05-23T03:10:02.520Z,58.04
2016-05-23T03:11:02.523Z,57.85
2016-05-23T03:12:02.714Z,58.14
2016-05-23T03:13:02.732Z,57.95
2016-05-23T03:14:02.969Z,57.95
2016-05-23T03:15:02.769Z,58.23
2016-05-23T03:16:02.740Z,58.04
2016-05-23T03:17:16.620Z,58.91
2016-05-23T03:18:02.574Z,58.14
2016-05-23T03:19:03.201Z,58.71
2016-05-23T03:20:02.595Z,59
2016-05-23T03:21:02.441Z,59.19
2016-05-23T03:22:02.616Z,58.42
2016-05-23T03:23:02.619Z,58.81
2016-05-23T03:24:02.699Z,58.71
2016-05-23T03:25:02.624Z,59
2016-05-23T03:26:02.642Z,58.91
2016-05-23T03:27:02.630Z,59.48
2016-05-23T03:28:02.647Z,59.48
2016-05-23T03:30:02.699Z,59.77
2016-05-23T03:31:02.671Z,59.86
2016-05-23T03:32:02.690Z,59.86
2016-05-23T03:33:02.910Z,60.53
2016-05-23T03:34:03.117Z,60.44
2016-05-23T03:35:02.822Z,60.05
2016-05-23T03:36:02.732Z,59.77
2016-05-23T03:37:02.734Z,60.35
2016-05-23T03:38:02.831Z,60.25
2016-05-23T03:39:02.958Z,60.25
2016-05-23T03:40:02.976Z,60.35
2016-05-23T03:41:02.792Z,60.05
2016-05-23T03:42:17.078Z,60.63
2016-05-23T03:43:03.016Z,60.44
2016-05-23T03:44:02.847Z,60.35
2016-05-23T03:45:02.834Z,60.15
2016-05-23T03:46:02.836Z,59.86
2016-05-23T03:47:03.027Z,59.96
2016-05-23T03:48:02.841Z,60.57
2016-05-23T03:49:02.861Z,60.63
2016-05-23T03:50:02.863Z,60.47
2016-05-23T03:51:02.866Z,60.53
2016-05-23T03:53:02.949Z,60.95
2016-05-23T03:54:02.952Z,60.75
2016-05-23T03:55:02.924Z,60.57
2016-05-23T03:56:03.145Z,60.47
2016-05-23T03:57:02.944Z,60.57
2016-05-23T03:58:02.947Z,60.66
2016-05-23T03:59:03.371Z,60.66
2016-05-23T04:00:02.546Z,60.66
2016-05-23T04:01:03.002Z,60.66
2016-05-23T04:02:17.082Z,60.95
2016-05-23T04:03:02.851Z,59.89
2016-05-23T04:04:03.026Z,60.38
2016-05-23T04:05:03.044Z,60.38
2016-05-23T04:06:03.234Z,60.28
2016-05-23T04:07:03.252Z,59.89
2016-05-23T04:08:03.255Z,60.4
2016-05-23T04:11:03.310Z,60.21
2016-05-23T04:12:03.094Z,59.92
2016-05-23T04:13:03.362Z,59.34
2016-05-23T04:14:03.334Z,59.73
2016-05-23T04:15:03.431Z,59.73
2016-05-23T04:16:03.339Z,59.64
2016-05-23T04:17:03.342Z,59.54
2016-05-23T04:18:03.407Z,59.25
2016-05-23T04:19:17.238Z,59.66
2016-05-23T04:20:17.459Z,59.66
2016-05-23T04:21:03.040Z,59.09
2016-05-23T04:22:03.199Z,59.28
2016-05-23T04:23:03.264Z,59.28
2016-05-23T04:24:03.252Z,59.28
2016-05-23T04:25:03.457Z,58.89
2016-05-23T04:26:03.257Z,58.61
2016-05-23T04:27:03.478Z,58.61
2016-05-23T04:28:03.278Z,59.09
2016-05-23T04:29:03.280Z,58.8
2016-05-23T04:30:03.924Z,58.7
2016-05-23T04:31:03.332Z,59.19
2016-05-23T04:32:03.507Z,58.22
2016-05-23T04:33:17.400Z,58.13
2016-05-23T04:34:03.340Z,58.64
2016-05-23T04:35:03.359Z,58.32
2016-05-23T04:36:03.362Z,58.35
2016-05-23T04:37:03.365Z,58.15
2016-05-23T04:38:03.398Z,57.87
2016-05-23T04:39:03.385Z,58.15
2016-05-23T04:40:03.404Z,57.97
2016-05-23T04:41:03.422Z,57.87
2016-05-23T04:42:03.831Z,57.77
2016-05-23T04:43:03.428Z,57.48
2016-05-23T04:44:03.837Z,57.58
2016-05-23T04:45:03.714Z,57.87
2016-05-23T04:46:03.498Z,57.29
2016-05-23T04:47:17.767Z,57.77
2016-05-23T04:48:03.550Z,57.8
2016-05-23T04:49:03.709Z,57.13
2016-05-23T04:50:03.587Z,57.13
2016-05-23T04:51:03.762Z,57.1
2016-05-23T04:52:03.546Z,56.74
2016-05-23T04:53:03.985Z,57.13
2016-05-23T04:54:03.567Z,57.03
2016-05-23T04:55:03.569Z,56.93
2016-05-23T04:56:03.838Z,57.13
2016-05-23T04:57:03.591Z,57.03
2016-05-23T04:58:03.828Z,57.13
2016-05-23T04:59:04.049Z,57.42
2016-05-23T05:00:04.098Z,57.8
2016-05-23T05:01:03.852Z,58.18
2016-05-23T05:02:03.650Z,58.37
2016-05-23T05:03:03.857Z,58.09
2016-05-23T05:04:03.671Z,58.28
2016-05-23T05:05:03.690Z,57.7
2016-05-23T05:06:03.693Z,57.7
2016-05-23T05:07:03.711Z,57.22
2016-05-23T05:08:04.026Z,57.6
2016-05-23T05:09:03.779Z,57.7
2016-05-23T05:10:03.766Z,57.42
2016-05-23T05:11:03.784Z,57.8
2016-05-23T05:12:03.802Z,57.8
2016-05-23T05:14:03.807Z,57.8
2016-05-23T05:15:03.873Z,57.9
2016-05-23T05:16:03.812Z,57.99
2016-05-23T05:17:03.848Z,57.6
2016-05-23T05:18:03.865Z,57.8
2016-05-23T05:19:04.071Z,57.7
2016-05-23T05:20:04.105Z,58.28
2016-05-23T05:21:03.906Z,57.8
2016-05-23T05:22:03.923Z,57.7
2016-05-23T05:23:03.910Z,57.8
2016-05-23T05:24:03.929Z,57.8
2016-05-23T05:25:03.931Z,57.7
2016-05-23T05:26:03.933Z,57.8
2016-05-23T05:27:03.953Z,57.6
2016-05-23T05:28:04.002Z,57.8
2016-05-23T05:29:18.067Z,57.7
2016-05-23T05:30:04.320Z,57.9
2016-05-23T05:32:04.106Z,57.22
2016-05-23T05:33:04.030Z,57.13
2016-05-23T05:34:04.049Z,57.03
2016-05-23T05:35:04.052Z,56.96
2016-05-23T05:36:04.071Z,57.25
2016-05-23T05:37:04.088Z,57.25
2016-05-23T05:38:03.935Z,57.35
2016-05-23T05:39:04.000Z,57.06
2016-05-23T05:40:04.144Z,57.35
2016-05-23T05:41:04.334Z,56.96
2016-05-23T05:42:04.352Z,57.25
2016-05-23T05:43:04.152Z,57.06
2016-05-23T05:44:04.217Z,56.77
2016-05-23T05:45:04.063Z,57.15
2016-05-23T05:46:04.222Z,56.96
2016-05-23T05:47:04.240Z,56.67
2016-05-23T05:49:04.245Z,57.15
2016-05-23T05:50:04.279Z,57.06
2016-05-23T05:51:04.470Z,56.96
2016-05-23T05:52:04.270Z,57.35
2016-05-23T05:53:04.319Z,57.83
2016-05-23T05:54:04.306Z,57.83
2016-05-23T05:55:04.325Z,56.87
2016-05-23T05:56:04.530Z,57.64
2016-05-23T05:57:04.330Z,57.92
2016-05-23T05:58:04.333Z,57.92
2016-05-23T05:59:04.554Z,57.64
2016-05-23T06:00:04.416Z,57.73
2016-05-23T06:01:04.419Z,57.64
2016-05-23T06:02:04.406Z,56.96
2016-05-23T06:03:04.644Z,57.15
2016-05-23T06:04:04.614Z,56.96
2016-05-23T06:05:04.633Z,56.8
2016-05-23T06:06:04.683Z,58.05
2016-05-23T06:07:18.529Z,57.47
2016-05-23T06:08:04.468Z,57.47
2016-05-23T06:09:04.487Z,57.28
2016-05-23T06:10:04.708Z,57.18
2016-05-23T06:11:04.352Z,56.7
2016-05-23T06:12:04.713Z,57.18
2016-05-23T06:13:04.795Z,57.18
2016-05-23T06:14:04.984Z,57.21
2016-05-23T06:15:04.566Z,56.82
2016-05-23T06:16:04.584Z,56.25
2016-05-23T06:17:18.649Z,56.73
2016-05-23T06:18:04.590Z,56.82
2016-05-23T06:19:04.608Z,56.73
2016-05-23T06:20:04.845Z,56.15
2016-05-23T06:21:04.645Z,56.15
2016-05-23T06:22:04.648Z,56.15
2016-05-23T06:23:04.759Z,56.44
2016-05-23T06:24:04.699Z,56.05
2016-05-23T06:25:04.702Z,56.35
2016-05-23T06:26:04.705Z,56.95
2016-05-23T06:27:04.723Z,56.47
2016-05-23T06:28:04.569Z,55.89
2016-05-23T06:29:04.728Z,55.6
2016-05-23T06:30:04.591Z,55.79
2016-05-23T06:31:04.297Z,55.22
2016-05-23T06:32:05.174Z,55.99
2016-05-23T06:33:05.474Z,55.51
2016-05-23T06:35:18.901Z,54.96
2016-05-23T06:36:04.841Z,55.24
2016-05-23T06:37:04.844Z,55.34
2016-05-23T06:38:04.863Z,55.44
2016-05-23T06:39:05.069Z,55.82
2016-05-23T06:40:04.913Z,55.63
2016-05-23T06:41:05.761Z,55.44
2016-05-23T06:42:04.919Z,55.82
2016-05-23T06:43:05.110Z,55.82
2016-05-23T06:44:04.940Z,54.96
2016-05-23T06:45:05.209Z,55.44
2016-05-23T06:46:04.962Z,55.44
2016-05-23T06:47:05.183Z,55.05
2016-05-23T06:48:04.983Z,55.34
2016-05-23T06:49:05.183Z,55.54
2016-05-23T06:50:05.102Z,55.15
2016-05-23T06:51:05.114Z,54.93
2016-05-23T06:52:05.142Z,54.93
2016-05-23T06:53:05.186Z,55.51
2016-05-23T06:54:05.212Z,55.22
2016-05-23T06:55:05.240Z,55.79
2016-05-23T06:56:05.283Z,55.7
2016-05-23T06:57:05.312Z,55.7
2016-05-23T06:58:05.307Z,55.51
2016-05-23T06:59:05.345Z,55.6
2016-05-23T07:00:05.803Z,55.89
2016-05-23T07:01:05.232Z,55.7
2016-05-23T07:02:05.580Z,55.7
2016-05-23T07:03:05.461Z,55.79
2016-05-23T07:04:05.606Z,55.31
2016-05-23T07:05:05.469Z,55.6
2016-05-23T07:06:05.644Z,55.7
2016-05-23T07:07:05.445Z,56.27
2016-05-23T07:08:05.480Z,55.63
2016-05-23T07:09:05.702Z,55.73
2016-05-23T07:10:05.955Z,55.24
2016-05-23T07:11:05.381Z,55.05
2016-05-23T07:12:05.758Z,54.66
2016-05-23T07:13:05.558Z,54.38
2016-05-23T07:14:05.765Z,54.28
2016-05-23T07:15:05.596Z,54.28
2016-05-23T07:16:05.614Z,53.8
2016-05-23T07:17:05.602Z,53.99
2016-05-23T07:18:05.605Z,53.89
2016-05-23T07:19:05.623Z,53.7
2016-05-23T07:20:05.626Z,53.53
2016-05-23T07:21:05.738Z,53.61
2016-05-23T07:22:05.679Z,53.44
2016-05-23T07:23:05.885Z,53.7
2016-05-23T07:24:05.777Z,53.73
2016-05-23T07:25:05.702Z,53.89
2016-05-23T07:26:05.735Z,53.41
2016-05-23T07:27:05.738Z,53.51
2016-05-23T07:28:05.787Z,53.51
2016-05-23T07:31:05.796Z,53.63
2016-05-23T07:32:06.001Z,53.8
2016-05-23T07:33:05.817Z,53.7
2016-05-23T07:34:05.866Z,54.02
2016-05-23T07:35:06.057Z,53.34
2016-05-23T07:36:06.294Z,53.44
2016-05-23T07:37:05.906Z,53.44
2016-05-23T07:39:05.912Z,53.73
2016-05-23T07:40:05.945Z,53.44
2016-05-23T07:41:05.792Z,53.53
2016-05-23T07:42:05.966Z,53.63
2016-05-23T07:43:05.985Z,53.53
2016-05-23T07:44:05.987Z,53.34
2016-05-23T07:45:06.022Z,53.15
2016-05-23T07:46:06.008Z,53.34
2016-05-23T07:47:06.010Z,53.63
2016-05-23T07:48:06.029Z,54.53
2016-05-23T07:49:06.032Z,54.14
2016-05-23T07:50:06.065Z,54.24
2016-05-23T07:51:05.928Z,54.53
2016-05-23T07:52:06.337Z,54.62
2016-05-23T07:53:06.105Z,54.53
2016-05-23T07:54:06.139Z,54.05
2016-05-23T07:55:06.142Z,53.27
2016-05-23T07:56:06.348Z,52.81
2016-05-23T07:57:06.179Z,52.81
2016-05-23T07:58:06.181Z,53.01
2016-05-23T07:59:06.215Z,52.04
2016-05-23T08:00:06.248Z,53.01
2016-05-23T08:01:06.237Z,52.23
2016-05-23T08:02:06.442Z,52.62
2016-05-23T08:03:20.367Z,52.26
2016-05-23T08:04:06.259Z,51.85
2016-05-23T08:05:06.294Z,51.59
2016-05-23T08:06:06.359Z,51.97
2016-05-23T08:07:09.315Z,51.1
2016-05-23T08:08:06.411Z,51.59
2016-05-23T08:09:06.555Z,51.1
2016-05-23T08:10:06.370Z,51.29
2016-05-23T08:11:06.404Z,51.1
2016-05-23T08:13:20.487Z,51.23
2016-05-23T08:14:06.428Z,51.2
2016-05-23T08:15:06.946Z,50.93
2016-05-23T08:16:06.448Z,50.84
2016-05-23T08:17:06.482Z,49.97
2016-05-23T08:18:06.516Z,49.12
2016-05-23T08:19:06.519Z,49.22
2016-05-23T08:20:06.538Z,49.32
2016-05-23T08:21:06.524Z,49.32
2016-05-23T08:22:06.574Z,49.15
2016-05-23T08:23:06.560Z,48.95
2016-05-23T08:24:06.610Z,48.76
2016-05-23T08:25:09.612Z,49.54
2016-05-23T08:26:06.804Z,48.76
2016-05-23T08:27:06.696Z,49.44
2016-05-23T08:28:06.637Z,48.08
2016-05-23T08:29:06.967Z,47.69
2016-05-23T08:30:20.986Z,48.27
2016-05-23T08:31:06.707Z,48.39
2016-05-23T08:32:06.898Z,47.79
2016-05-23T08:33:06.744Z,47.79
2016-05-23T08:34:09.825Z,48.18
2016-05-23T08:35:07.171Z,48.47
2016-05-23T08:36:06.768Z,47.99
2016-05-23T08:37:06.801Z,48.47
2016-05-23T08:38:06.836Z,49.12
2016-05-23T08:39:06.807Z,48.83
2016-05-23T08:40:06.888Z,49.22
2016-05-23T08:41:06.906Z,49.32
2016-05-23T08:42:23.971Z,49.58
2016-05-23T08:43:06.896Z,49.97
2016-05-23T08:44:07.461Z,49.87
2016-05-23T08:45:10.198Z,49.87
2016-05-23T08:46:06.951Z,49.77
2016-05-23T08:47:06.844Z,49.58
2016-05-23T08:48:07.191Z,49.97
2016-05-23T08:49:06.522Z,49.68
2016-05-23T08:50:07.211Z,50.04
2016-05-23T08:51:07.026Z,50.55
2016-05-23T08:52:07.060Z,50.65
2016-05-23T08:53:21.126Z,50.13
2016-05-23T08:54:07.066Z,50.13
2016-05-23T08:55:07.085Z,49.85
2016-05-23T08:56:07.088Z,50.71
2016-05-23T08:57:06.965Z,51.39
2016-05-23T08:58:07.171Z,51.39
2016-05-23T08:59:07.345Z,51.29
2016-05-23T09:00:07.457Z,51.29
2016-05-23T09:01:07.148Z,51.78
2016-05-23T09:02:07.181Z,51.87
2016-05-23T09:03:07.278Z,51.97
2016-05-23T09:04:10.437Z,52.17
2016-05-23T09:05:07.252Z,51.87
2016-05-23T09:06:07.254Z,51.68
2016-05-23T09:07:07.273Z,51.97
2016-05-23T09:08:07.495Z,52.07
2016-05-23T09:09:07.325Z,51.81
2016-05-23T09:10:07.312Z,51.59
2016-05-23T09:11:07.158Z,52.07
2016-05-23T09:12:07.333Z,51.29
2016-05-23T09:13:07.336Z,51.23
2016-05-23T09:14:07.370Z,50.65
2016-05-23T09:15:07.451Z,50.45
2016-05-23T09:16:07.422Z,50.81
2016-05-23T09:17:07.425Z,50.93
2016-05-23T09:18:08.225Z,50.65
2016-05-23T09:19:07.462Z,50.55
2016-05-23T09:20:07.464Z,51.42
2016-05-23T09:21:07.467Z,51.32
2016-05-23T09:22:07.485Z,50.26
2016-05-23T09:23:07.504Z,50.26
2016-05-23T09:24:07.537Z,50.16
2016-05-23T09:25:07.805Z,49.87
2016-05-23T09:26:07.558Z,50.07
2016-05-23T09:27:08.858Z,50.09
2016-05-23T09:28:07.579Z,50.93
2016-05-23T09:29:07.598Z,50.48
2016-05-23T09:30:07.616Z,50.28
2016-05-23T09:31:07.634Z,50.86
2016-05-23T09:32:07.653Z,50.28
2016-05-23T09:33:07.671Z,49.9
2016-05-23T09:34:07.673Z,50.18
2016-05-23T09:35:07.692Z,49.22
2016-05-23T09:36:21.789Z,49.9
2016-05-23T09:37:08.181Z,49.99
2016-05-23T09:38:07.747Z,49.22
2016-05-23T09:39:08.203Z,49.51
2016-05-23T09:40:07.767Z,49.12
2016-05-23T09:41:07.630Z,49.02
2016-05-23T09:42:07.851Z,49.12
2016-05-23T09:43:08.011Z,50.09
2016-05-23T09:44:07.857Z,50.12
2016-05-23T09:45:07.875Z,49.92
2016-05-23T09:46:07.909Z,48.47
2016-05-23T09:47:08.114Z,48.47
2016-05-23T09:48:07.978Z,48.66
2016-05-23T09:49:07.917Z,48.3
2016-05-23T09:50:08.138Z,48.49
2016-05-23T09:51:07.969Z,48.49
2016-05-23T09:52:08.285Z,48.11
2016-05-23T09:53:07.835Z,47.62
2016-05-23T09:54:08.024Z,47.72
2016-05-23T09:55:07.840Z,46.36
2016-05-23T09:56:08.077Z,46.08
2016-05-23T09:57:08.345Z,46.48
2016-05-23T09:58:08.082Z,46.56
2016-05-23T09:59:08.585Z,46.66
2016-05-23T10:00:08.088Z,46.26
2016-05-23T10:01:08.090Z,46.75
2016-05-23T10:02:08.327Z,48.01
2016-05-23T10:03:08.158Z,47.43
2016-05-23T10:04:08.177Z,46.97
2016-05-23T10:05:08.617Z,47.45
2016-05-23T10:06:08.182Z,47.55
2016-05-23T10:07:08.215Z,46.87
2016-05-23T10:08:22.296Z,47.84
2016-05-23T10:10:08.255Z,46.67
2016-05-23T10:11:08.351Z,46.67
2016-05-23T10:12:08.511Z,46.6
2016-05-23T10:13:08.513Z,46.6
2016-05-23T10:14:08.531Z,45.73
2016-05-23T10:15:08.331Z,45.64
2016-05-23T10:16:08.365Z,44.67
2016-05-23T10:17:08.258Z,45.64
2016-05-23T10:18:08.401Z,46.41
2016-05-23T10:19:08.405Z,46.7
2016-05-23T10:20:08.453Z,45.83
2016-05-23T10:21:08.441Z,45.83
2016-05-23T10:22:08.662Z,46.31
2016-05-23T10:23:08.477Z,45.25
2016-05-23T10:24:08.496Z,45.83
2016-05-23T10:25:08.530Z,45.83
2016-05-23T10:26:08.548Z,46.41
2016-05-23T10:27:08.535Z,46.51
2016-05-23T10:28:08.444Z,45.64
2016-05-23T10:29:08.588Z,45.44
2016-05-23T10:30:08.824Z,45.34
2016-05-23T10:31:08.843Z,45.83
2016-05-23T10:32:08.627Z,46.41
2016-05-23T10:33:08.646Z,45.47
2016-05-23T10:34:08.647Z,45.56
2016-05-23T10:35:08.556Z,44.78
2016-05-23T10:36:08.731Z,44.59
2016-05-23T10:37:08.734Z,45.17
2016-05-23T10:38:08.736Z,44.49
2016-05-23T10:39:08.598Z,44.4
2016-05-23T10:40:08.804Z,45.47
2016-05-23T10:41:08.807Z,44.59
2016-05-23T10:42:08.809Z,44.1
2016-05-23T10:43:08.828Z,44.2
2016-05-23T10:44:08.846Z,43.93
2016-05-23T10:45:08.911Z,44.23
2016-05-23T10:46:08.898Z,44.71
2016-05-23T10:47:08.901Z,43.93
2016-05-23T10:48:08.919Z,43.74
2016-05-23T10:49:08.938Z,44.23
2016-05-23T10:50:08.941Z,44.13
2016-05-23T10:51:09.006Z,43.54
2016-05-23T10:52:08.993Z,43.93
2016-05-23T10:53:09.011Z,44.61
2016-05-23T10:54:09.014Z,43.74
2016-05-23T10:55:09.080Z,44.23
2016-05-23T10:56:09.066Z,43.64
2016-05-23T10:57:09.068Z,44.9
2016-05-23T10:58:09.087Z,43.93
2016-05-23T10:59:09.121Z,42.77
2016-05-23T11:00:09.327Z,43.57
2016-05-23T11:01:09.017Z,42.79
2016-05-23T11:02:09.004Z,43.27
2016-05-23T11:03:09.023Z,44.64
2016-05-23T11:04:09.229Z,43.47
2016-05-23T11:05:09.449Z,43.66
2016-05-23T11:06:23.312Z,43.86
2016-05-23T11:07:09.299Z,43.95
2016-05-23T11:08:09.474Z,43.18
2016-05-23T11:09:09.382Z,42.89
2016-05-23T11:10:09.307Z,42.11
2016-05-23T11:11:09.403Z,42.5
2016-05-23T11:12:09.343Z,41.82
2016-05-23T11:13:23.440Z,42.3
2016-05-23T11:14:09.380Z,42.4
2016-05-23T11:15:09.492Z,42.21
2016-05-23T11:16:23.495Z,42.3
2016-05-23T11:17:09.436Z,41.72
2016-05-23T11:18:09.439Z,41.82
2016-05-23T11:19:09.456Z,41.82
2016-05-23T11:20:09.522Z,42.02
2016-05-23T11:22:09.542Z,41.16
2016-05-23T11:23:23.827Z,40.77
2016-05-23T11:24:09.547Z,40.67
2016-05-23T11:25:09.769Z,41.43
2016-05-23T11:26:09.600Z,40.77
2016-05-23T11:27:09.603Z,41.06
2016-05-23T11:28:09.621Z,41.06
2016-05-23T11:29:09.639Z,41.64
2016-05-23T11:30:09.908Z,40.77
2016-05-23T11:31:09.707Z,40.67
2016-05-23T11:32:09.929Z,40.39
2016-05-23T11:33:09.713Z,40.29
2016-05-23T11:34:09.732Z,41.16
2016-05-23T11:35:09.296Z,40.58
2016-05-23T11:36:09.846Z,40.87
2016-05-23T11:37:09.786Z,41.36
2016-05-23T11:38:09.804Z,42.03
2016-05-23T11:39:10.916Z,41.45
2016-05-23T11:40:23.903Z,41.55
2016-05-23T11:41:09.875Z,40.97
2016-05-23T11:42:10.159Z,41.16
2016-05-23T11:43:09.895Z,41.06
2016-05-23T11:44:09.914Z,40.58
2016-05-23T11:45:10.557Z,40.5
2016-05-23T11:46:10.184Z,40.69
2016-05-23T11:47:10.000Z,41.18
2016-05-23T11:48:09.987Z,41.28
2016-05-23T11:49:10.224Z,41.38
2016-05-23T11:50:10.039Z,40.13
2016-05-23T11:51:09.886Z,40.41
2016-05-23T11:52:10.186Z,39.72
2016-05-23T11:53:10.283Z,40.41
2016-05-23T11:54:10.144Z,40.01
2016-05-23T11:55:10.631Z,39.72
2016-05-23T11:56:10.149Z,39.92
2016-05-23T11:57:09.996Z,39.72
2016-05-23T11:58:10.171Z,39.36
2016-05-23T11:59:11.392Z,39.06
2016-05-23T12:00:10.755Z,39.36
2016-05-23T12:01:10.459Z,38.96
2016-05-23T12:02:10.321Z,40.13
2016-05-23T12:03:10.543Z,39.75
2016-05-23T12:04:10.327Z,40.23
2016-05-23T12:05:10.221Z,38.5
2016-05-23T12:06:10.489Z,39.45
2016-05-23T12:07:10.491Z,39.37
2016-05-23T12:08:10.213Z,39.28
2016-05-23T12:09:11.013Z,39.08
2016-05-23T12:10:10.657Z,39.1
2016-05-23T12:11:10.315Z,39.2
2016-05-23T12:12:10.770Z,38.42
2016-05-23T12:13:10.507Z,37.93
2016-05-23T12:14:10.807Z,37.54
2016-05-23T12:15:10.904Z,37.74
2016-05-23T12:16:10.640Z,38.32
2016-05-23T12:17:24.628Z,37.93
2016-05-23T12:18:10.677Z,38.34
2016-05-23T12:19:10.977Z,38.15
2016-05-23T12:20:10.823Z,37.66
2016-05-23T12:21:11.045Z,36.79
2016-05-23T12:22:11.017Z,36.4
2016-05-23T12:23:10.988Z,37.08
2016-05-23T12:24:11.100Z,37.08
2016-05-23T12:25:11.039Z,37.87
2016-05-23T12:26:10.714Z,37.97
2016-05-23T12:27:10.717Z,37.39
2016-05-23T12:28:11.392Z,37.19
2016-05-23T12:29:10.941Z,37
2016-05-23T12:30:11.632Z,36.61
2016-05-23T12:31:10.822Z,37.29
2016-05-23T12:33:11.046Z,37.18
2016-05-23T12:34:11.282Z,37.95
2016-05-23T12:35:10.957Z,37.48
2016-05-23T12:36:11.366Z,37.29
2016-05-23T12:37:25.010Z,37.46
2016-05-23T12:38:11.169Z,38.24
2016-05-23T12:39:10.968Z,37.76
2016-05-23T12:40:11.658Z,37.37
2016-05-23T12:41:11.020Z,37.56
2016-05-23T12:42:11.289Z,38.15
2016-05-23T12:43:12.073Z,36.59
2016-05-23T12:44:11.060Z,37.46
2016-05-23T12:45:11.937Z,37.85
2016-05-23T12:46:11.534Z,37.37
2016-05-23T12:47:11.974Z,38.05
2016-05-23T12:48:11.962Z,37.85
2016-05-23T12:49:11.604Z,38.24
2016-05-23T12:50:11.622Z,37.46
2016-05-23T12:51:12.657Z,37.27
2016-05-23T12:52:11.581Z,37.93
2016-05-23T12:53:13.272Z,38.03
2016-05-23T12:54:12.087Z,37.84
2016-05-23T12:55:11.933Z,37.64
2016-05-23T12:56:11.326Z,38.03
2016-05-23T12:57:11.672Z,38.52
2016-05-23T12:58:11.316Z,38.32
2016-05-23T12:59:11.600Z,38.81
2016-05-23T13:00:11.774Z,38.13
2016-05-23T13:01:11.449Z,38.32
2016-05-23T13:02:11.468Z,37.93
2016-05-23T13:03:11.627Z,39.22
2016-05-23T13:04:11.504Z,37.85
2016-05-23T13:05:11.397Z,38.73
2016-05-23T13:06:11.760Z,37.84
2016-05-23T13:07:11.840Z,37.76
2016-05-23T13:08:12.265Z,38.05
2016-05-23T13:09:11.955Z,37.93
2016-05-23T13:10:12.083Z,38.42
2016-05-23T13:11:11.867Z,38.44
2016-05-23T13:12:11.901Z,37.85
2016-05-23T13:13:12.043Z,37.66
2016-05-23T13:14:11.921Z,37.66